createdAt,value
2022-10-22T00:00:59.061Z,38.16
2022-10-22T00:03:27.051Z,38.08
2022-10-22T00:05:54.989Z,38.15
2022-10-22T00:08:22.914Z,37.90
2022-10-22T00:10:50.880Z,37.99
2022-10-22T00:13:18.837Z,38.11
2022-10-22T00:15:46.868Z,37.73
2022-10-22T00:18:16.197Z,37.88
2022-10-22T00:20:44.519Z,37.63
2022-10-22T00:23:12.511Z,37.77
2022-10-22T00:25:40.465Z,37.81
2022-10-22T00:28:08.434Z,37.96
2022-10-22T00:30:36.444Z,37.99
2022-10-22T00:33:04.341Z,38.05
2022-10-22T00:35:33.783Z,37.69
2022-10-22T00:38:01.754Z,37.76
2022-10-22T00:40:29.886Z,37.67
2022-10-22T00:42:57.815Z,37.84
2022-10-22T00:45:26.854Z,38.02
2022-10-22T00:47:57.713Z,37.62
2022-10-22T00:50:28.462Z,37.97
2022-10-22T00:52:57.953Z,37.90
2022-10-22T00:55:26.007Z,37.85
2022-10-22T00:57:54.255Z,37.90
2022-10-22T01:00:22.804Z,37.89
2022-10-22T01:02:50.934Z,37.88
2022-10-22T01:05:19.055Z,38.02
2022-10-22T01:07:48.682Z,37.83
2022-10-22T01:10:36.136Z,37.99
2022-10-22T01:13:12.296Z,37.80
2022-10-22T01:15:42.973Z,37.81
2022-10-22T01:18:11.833Z,37.81
2022-10-22T01:20:52.294Z,37.97
2022-10-22T01:23:32.419Z,37.95
2022-10-22T01:26:05.578Z,37.66
2022-10-22T01:28:48.303Z,38.03
2022-10-22T01:31:16.265Z,37.78
2022-10-22T01:33:44.571Z,37.76
2022-10-22T01:36:12.664Z,38.00
2022-10-22T01:38:40.586Z,37.65
2022-10-22T01:41:08.545Z,37.76
2022-10-22T01:43:36.626Z,38.06
2022-10-22T01:46:06.494Z,37.76
2022-10-22T01:48:38.397Z,38.00
2022-10-22T01:51:23.441Z,38.04
2022-10-22T01:53:52.333Z,37.74
2022-10-22T01:56:31.268Z,37.95
2022-10-22T01:59:03.719Z,38.01
2022-10-22T02:01:35.838Z,37.75
2022-10-22T02:04:06.669Z,37.82
2022-10-22T02:06:34.660Z,37.89
2022-10-22T02:09:02.730Z,37.79
2022-10-22T02:11:30.996Z,37.91
2022-10-22T02:14:00.535Z,38.09
2022-10-22T02:16:29.893Z,37.98
2022-10-22T02:18:59.861Z,38.21
2022-10-22T02:21:28.196Z,38.23
2022-10-22T02:23:56.160Z,38.12
2022-10-22T02:26:26.128Z,38.11
2022-10-22T02:28:58.806Z,38.11
2022-10-22T02:31:28.996Z,38.18
2022-10-22T02:33:58.138Z,37.89
2022-10-22T02:36:27.500Z,37.96
2022-10-22T02:38:55.485Z,38.03
2022-10-22T02:41:23.459Z,37.82
2022-10-22T02:43:52.700Z,38.06
2022-10-22T02:46:20.669Z,37.74
2022-10-22T02:48:48.606Z,37.94
2022-10-22T02:51:16.778Z,37.77
2022-10-22T02:53:46.173Z,38.17
2022-10-22T02:56:14.282Z,37.95
2022-10-22T02:58:42.267Z,38.14
2022-10-22T03:01:12.432Z,38.17
2022-10-22T03:03:43.718Z,38.14
2022-10-22T03:06:11.719Z,38.19
2022-10-22T03:08:39.814Z,38.11
2022-10-22T03:11:09.302Z,38.02
2022-10-22T03:13:37.253Z,38.03
2022-10-22T03:16:05.423Z,37.94
2022-10-22T03:18:33.395Z,38.19
2022-10-22T03:21:03.353Z,38.18
2022-10-22T03:23:31.539Z,38.19
2022-10-22T03:28:33.712Z,38.12
2022-10-22T03:31:01.858Z,38.21
2022-10-22T03:33:29.814Z,37.95
2022-10-22T03:35:57.781Z,38.30
2022-10-22T03:38:26.110Z,38.21
2022-10-22T03:40:54.013Z,38.25
2022-10-22T03:43:21.948Z,38.15
2022-10-22T03:45:51.322Z,37.98
2022-10-22T03:48:19.309Z,38.29
2022-10-22T03:50:47.281Z,38.37
2022-10-22T03:53:15.207Z,38.14
2022-10-22T03:55:43.164Z,38.00
2022-10-22T03:58:11.077Z,38.09
2022-10-22T04:00:39.070Z,38.30
2022-10-22T04:03:08.391Z,38.15
2022-10-22T04:05:36.362Z,38.14
2022-10-22T04:08:04.528Z,38.51
2022-10-22T04:10:32.486Z,38.23
2022-10-22T04:13:00.479Z,38.25
2022-10-22T04:15:29.100Z,38.37
2022-10-22T04:17:57.241Z,38.21
2022-10-22T04:20:26.601Z,38.13
2022-10-22T04:22:54.591Z,38.24
2022-10-22T04:25:22.617Z,38.37
2022-10-22T04:27:50.610Z,38.33
2022-10-22T04:30:18.609Z,38.51
2022-10-22T04:32:46.564Z,38.28
2022-10-22T04:35:14.620Z,38.38
2022-10-22T04:37:44.092Z,38.20
2022-10-22T04:40:13.829Z,38.02
2022-10-22T04:42:41.792Z,38.11
2022-10-22T04:45:10.882Z,38.24
2022-10-22T04:47:39.067Z,38.10
2022-10-22T04:50:08.253Z,38.40
2022-10-22T04:52:36.192Z,38.44
2022-10-22T04:55:05.985Z,37.99
2022-10-22T04:57:33.964Z,38.34
2022-10-22T05:00:02.004Z,38.46
2022-10-22T05:02:29.932Z,38.18
2022-10-22T05:04:57.918Z,38.43
2022-10-22T05:07:25.940Z,38.42
2022-10-22T05:09:54.663Z,38.47
2022-10-22T05:12:24.051Z,38.50
2022-10-22T05:14:52.067Z,38.05
2022-10-22T05:17:19.984Z,38.45
2022-10-22T05:19:47.973Z,38.38
2022-10-22T05:22:15.955Z,38.42
2022-10-22T05:24:44.059Z,38.47
2022-10-22T05:27:12.376Z,38.31
2022-10-22T05:29:41.700Z,38.37
2022-10-22T05:32:09.645Z,38.29
2022-10-22T05:34:37.807Z,38.43
2022-10-22T05:37:05.852Z,38.27
2022-10-22T05:39:36.841Z,38.03
2022-10-22T05:42:05.618Z,38.51
2022-10-22T05:44:33.814Z,38.71
2022-10-22T05:47:03.148Z,38.30
2022-10-22T05:49:31.351Z,38.39
2022-10-22T05:51:59.258Z,38.44
2022-10-22T05:54:27.287Z,38.16
2022-10-22T05:56:55.679Z,38.54
2022-10-22T05:59:23.652Z,38.15
2022-10-22T06:01:51.781Z,38.18
2022-10-22T06:04:21.701Z,38.43
2022-10-22T06:06:50.656Z,37.94
2022-10-22T06:09:19.555Z,38.33
2022-10-22T06:11:47.640Z,38.26
2022-10-22T06:14:15.933Z,38.34
2022-10-22T06:16:44.047Z,38.26
2022-10-22T06:19:12.576Z,38.44
2022-10-22T06:21:42.053Z,38.27
2022-10-22T06:24:10.548Z,38.12
2022-10-22T06:26:38.710Z,38.28
2022-10-22T06:29:06.708Z,38.02
2022-10-22T06:31:39.907Z,38.30
2022-10-22T06:34:11.951Z,38.39
2022-10-22T06:36:43.226Z,38.25
2022-10-22T06:39:12.273Z,38.26
2022-10-22T06:41:40.213Z,38.16
2022-10-22T06:44:08.210Z,38.20
2022-10-22T06:46:38.118Z,38.21
2022-10-22T06:49:10.813Z,38.63
2022-10-22T06:51:38.718Z,38.54
2022-10-22T06:54:08.227Z,38.25
2022-10-22T06:56:36.265Z,38.85
2022-10-22T06:59:04.322Z,38.68
2022-10-22T07:01:33.976Z,38.68
2022-10-22T07:04:02.059Z,38.69
2022-10-22T07:06:30.118Z,38.61
2022-10-22T07:08:58.738Z,38.88
2022-10-22T07:11:29.166Z,38.94
2022-10-22T07:13:57.250Z,38.61
2022-10-22T07:16:29.574Z,38.71
2022-10-22T07:19:00.366Z,38.70
2022-10-22T07:21:28.337Z,38.55
2022-10-22T07:23:56.606Z,38.88
2022-10-22T07:26:25.474Z,38.81
2022-10-22T07:28:54.917Z,38.72
2022-10-22T07:31:22.881Z,38.45
2022-10-22T07:33:50.859Z,38.77
2022-10-22T07:36:18.930Z,38.54
2022-10-22T07:38:47.204Z,38.39
2022-10-22T07:41:15.601Z,38.52
2022-10-22T07:43:43.663Z,38.37
2022-10-22T07:46:13.045Z,38.41
2022-10-22T07:48:41.196Z,38.43
2022-10-22T07:51:09.286Z,38.23
2022-10-22T07:53:37.233Z,38.55
2022-10-22T07:56:08.542Z,38.56
2022-10-22T07:58:36.560Z,38.68
2022-10-22T08:01:06.278Z,38.88
2022-10-22T08:03:35.589Z,38.82
2022-10-22T08:06:03.827Z,38.88
2022-10-22T08:08:31.829Z,39.24
2022-10-22T08:11:01.244Z,39.62
2022-10-22T08:13:30.539Z,39.70
2022-10-22T08:15:59.640Z,40.07
2022-10-22T08:18:27.662Z,39.45
2022-10-22T08:20:57.046Z,39.51
2022-10-22T08:23:26.214Z,39.05
2022-10-22T08:25:56.630Z,39.57
2022-10-22T08:28:24.556Z,39.23
2022-10-22T08:30:52.951Z,39.26
2022-10-22T08:33:20.875Z,39.63
2022-10-22T08:35:49.753Z,39.55
2022-10-22T08:38:19.280Z,39.04
2022-10-22T08:40:49.766Z,39.26
2022-10-22T08:43:40.499Z,39.50
2022-10-22T08:46:20.021Z,39.25
2022-10-22T08:48:49.049Z,39.10
2022-10-22T08:51:18.308Z,40.03
2022-10-22T08:54:08.099Z,39.72
2022-10-22T08:56:36.651Z,40.19
2022-10-22T08:59:07.163Z,40.12
2022-10-22T09:01:36.673Z,40.31
2022-10-22T09:04:07.008Z,40.10
2022-10-22T09:06:35.248Z,39.99
2022-10-22T09:09:10.867Z,40.12
2022-10-22T09:11:39.970Z,40.21
2022-10-22T09:14:07.963Z,40.30
2022-10-22T09:16:38.410Z,40.09
2022-10-22T09:19:16.072Z,40.64
2022-10-22T09:21:47.917Z,39.98
2022-10-22T09:24:32.901Z,40.31
2022-10-22T09:27:01.570Z,40.40
2022-10-22T09:29:33.165Z,40.32
2022-10-22T09:32:01.394Z,40.47
2022-10-22T09:34:29.630Z,40.60
2022-10-22T09:37:00.923Z,40.58
2022-10-22T09:39:33.311Z,41.18
2022-10-22T09:42:01.386Z,41.45
2022-10-22T09:44:29.410Z,41.36
2022-10-22T09:46:57.494Z,41.63
2022-10-22T09:49:25.533Z,41.60
2022-10-22T09:51:55.796Z,41.79
2022-10-22T09:54:24.857Z,41.94
2022-10-22T09:56:59.167Z,42.74
2022-10-22T09:59:30.694Z,42.32
2022-10-22T10:02:13.630Z,43.04
2022-10-22T10:04:52.695Z,43.04
2022-10-22T10:07:21.541Z,43.15
2022-10-22T10:09:49.479Z,43.07
2022-10-22T10:12:25.089Z,43.24
2022-10-22T10:14:57.165Z,43.15
2022-10-22T10:17:28.835Z,42.41
2022-10-22T10:20:03.769Z,42.01
2022-10-22T10:22:40.289Z,42.03
2022-10-22T10:25:18.076Z,42.14
2022-10-22T10:27:49.105Z,42.56
2022-10-22T10:30:18.115Z,42.46
2022-10-22T10:33:06.974Z,42.47
2022-10-22T10:35:40.577Z,42.64
2022-10-22T10:38:17.260Z,42.47
2022-10-22T10:40:47.220Z,43.03
2022-10-22T10:43:17.892Z,42.48
2022-10-22T10:45:55.493Z,42.33
2022-10-22T10:48:40.611Z,42.63
2022-10-22T10:51:14.082Z,42.25
2022-10-22T10:53:56.033Z,41.85
2022-10-22T10:56:39.059Z,41.84
2022-10-22T10:59:20.680Z,42.05
2022-10-22T11:01:59.602Z,42.28
2022-10-22T11:04:36.600Z,42.57
2022-10-22T11:07:11.315Z,42.85
2022-10-22T11:09:47.419Z,42.61
2022-10-22T11:12:18.313Z,42.73
2022-10-22T11:14:54.209Z,42.60
2022-10-22T11:17:22.214Z,42.77
2022-10-22T11:19:55.651Z,42.72
2022-10-22T11:22:27.663Z,42.57
2022-10-22T11:24:57.532Z,42.17
2022-10-22T11:27:28.771Z,42.34
2022-10-22T11:30:00.481Z,42.21
2022-10-22T11:32:28.972Z,42.08
2022-10-22T11:34:58.120Z,42.23
2022-10-22T11:37:27.600Z,42.12
2022-10-22T11:39:56.288Z,42.24
2022-10-22T11:42:25.113Z,42.18
2022-10-22T11:45:04.721Z,41.80
2022-10-22T11:47:36.528Z,41.89
2022-10-22T11:50:19.431Z,42.60
2022-10-22T11:52:56.169Z,42.30
2022-10-22T11:55:35.329Z,42.09
2022-10-22T11:58:03.875Z,42.54
2022-10-22T12:00:40.934Z,42.67
2022-10-22T12:03:17.659Z,42.16
2022-10-22T12:05:45.920Z,41.41
2022-10-22T12:08:26.860Z,41.87
2022-10-22T12:11:15.980Z,41.55
2022-10-22T12:14:14.920Z,41.73
2022-10-22T12:17:00.956Z,41.35
2022-10-22T12:19:30.591Z,41.49
2022-10-22T12:22:00.364Z,41.32
2022-10-22T12:24:31.699Z,41.45
2022-10-22T12:26:59.993Z,41.76
2022-10-22T12:29:29.120Z,41.87
2022-10-22T12:31:58.470Z,41.75
2022-10-22T12:34:26.540Z,41.72
2022-10-22T12:36:54.797Z,41.65
2022-10-22T12:39:24.113Z,41.67
2022-10-22T12:41:52.865Z,41.67
2022-10-22T12:44:22.009Z,41.85
2022-10-22T12:46:54.431Z,41.84
2022-10-22T12:49:30.483Z,42.23
2022-10-22T12:51:59.329Z,42.68
2022-10-22T12:54:29.435Z,42.41
2022-10-22T12:56:58.831Z,42.63
2022-10-22T12:59:28.221Z,43.24
2022-10-22T13:01:57.138Z,43.34
2022-10-22T13:04:36.067Z,43.47
2022-10-22T13:07:19.860Z,43.38
2022-10-22T13:09:59.379Z,43.84
2022-10-22T13:12:27.652Z,43.95
2022-10-22T13:14:55.755Z,44.13
2022-10-22T13:17:40.220Z,44.00
2022-10-22T13:20:17.756Z,44.00
2022-10-22T13:22:54.995Z,44.03
2022-10-22T13:25:25.132Z,43.83
2022-10-22T13:27:54.796Z,43.59
2022-10-22T13:30:24.550Z,43.27
2022-10-22T13:32:53.663Z,43.09
2022-10-22T13:35:25.408Z,43.16
2022-10-22T13:37:53.472Z,43.43
2022-10-22T13:40:21.911Z,43.37
2022-10-22T13:42:49.889Z,43.48
2022-10-22T13:45:18.320Z,43.78
2022-10-22T13:47:47.083Z,44.11
2022-10-22T13:50:16.549Z,44.48
2022-10-22T13:52:47.116Z,44.26
2022-10-22T13:55:20.027Z,44.70
2022-10-22T13:57:48.317Z,44.96
2022-10-22T14:00:18.237Z,45.36
2022-10-22T14:02:46.448Z,44.89
2022-10-22T14:05:15.020Z,44.94
2022-10-22T14:07:43.206Z,44.96
2022-10-22T14:10:17.922Z,45.33
2022-10-22T14:12:49.442Z,45.73
2022-10-22T14:15:21.606Z,45.27
2022-10-22T14:17:51.801Z,45.53
2022-10-22T14:20:22.390Z,45.21
2022-10-22T14:22:50.833Z,45.35
2022-10-22T14:25:22.483Z,45.41
2022-10-22T14:27:50.535Z,45.56
2022-10-22T14:30:19.832Z,45.98
2022-10-22T14:32:48.854Z,45.42
2022-10-22T14:35:17.822Z,45.25
2022-10-22T14:37:45.790Z,45.28
2022-10-22T14:40:15.286Z,45.07
2022-10-22T14:42:45.485Z,45.00
2022-10-22T14:45:15.832Z,45.42
2022-10-22T14:47:43.892Z,45.35
2022-10-22T14:50:12.163Z,45.70
2022-10-22T14:52:41.007Z,45.62
2022-10-22T14:55:10.532Z,45.48
2022-10-22T14:57:39.543Z,45.25
2022-10-22T15:00:12.090Z,44.75
2022-10-22T15:02:40.386Z,44.57
2022-10-22T15:05:09.378Z,44.71
2022-10-22T15:07:37.493Z,44.65
2022-10-22T15:10:07.062Z,44.68
2022-10-22T15:12:35.041Z,44.79
2022-10-22T15:15:03.676Z,44.68
2022-10-22T15:17:32.986Z,46.41
2022-10-22T15:20:04.459Z,45.51
2022-10-22T15:22:35.157Z,45.31
2022-10-22T15:25:04.853Z,44.93
2022-10-22T15:27:32.807Z,45.42
2022-10-22T15:32:35.196Z,44.98
2022-10-22T15:35:03.945Z,45.08
2022-10-22T15:37:31.928Z,44.78
2022-10-22T15:40:00.952Z,44.67
2022-10-22T15:42:28.976Z,44.82
2022-10-22T15:44:59.431Z,44.38
2022-10-22T15:47:29.734Z,44.36
2022-10-22T15:49:59.689Z,44.31
2022-10-22T15:52:28.449Z,44.17
2022-10-22T15:54:56.961Z,44.12
2022-10-22T15:57:24.922Z,44.06
2022-10-22T15:59:53.461Z,44.10
2022-10-22T16:02:21.436Z,43.98
2022-10-22T16:04:49.944Z,44.14
2022-10-22T16:07:21.204Z,44.19
2022-10-22T16:09:52.857Z,44.00
2022-10-22T16:12:20.776Z,43.87
2022-10-22T16:14:51.864Z,43.93
2022-10-22T16:17:20.070Z,43.75
2022-10-22T16:19:49.569Z,43.64
2022-10-22T16:22:17.580Z,43.56
2022-10-22T16:24:47.568Z,43.67
2022-10-22T16:27:15.575Z,43.71
2022-10-22T16:29:44.642Z,43.54
2022-10-22T16:32:13.287Z,43.81
2022-10-22T16:34:42.765Z,43.59
2022-10-22T16:37:10.864Z,43.44
2022-10-22T16:39:39.589Z,43.31
2022-10-22T16:42:08.970Z,43.31
2022-10-22T16:44:37.504Z,43.29
2022-10-22T16:47:05.490Z,43.53
2022-10-22T16:49:34.163Z,43.48
2022-10-22T16:52:02.782Z,43.40
2022-10-22T16:54:31.767Z,43.22
2022-10-22T16:56:59.748Z,43.16
2022-10-22T16:59:30.699Z,43.16
2022-10-22T17:01:58.754Z,43.07
2022-10-22T17:04:26.873Z,43.24
2022-10-22T17:06:55.589Z,43.30
2022-10-22T17:09:24.309Z,43.04
2022-10-22T17:11:52.997Z,43.13
2022-10-22T17:14:21.479Z,43.24
2022-10-22T17:16:54.813Z,43.07
2022-10-22T17:19:22.894Z,42.88
2022-10-22T17:21:52.171Z,42.72
2022-10-22T17:24:20.306Z,42.92
2022-10-22T17:26:49.142Z,42.70
2022-10-22T17:29:18.121Z,43.02
2022-10-22T17:31:47.717Z,42.86
2022-10-22T17:34:18.046Z,42.59
2022-10-22T17:36:46.823Z,43.02
2022-10-22T17:39:17.016Z,42.87
2022-10-22T17:41:46.655Z,42.86
2022-10-22T17:44:14.634Z,42.92
2022-10-22T17:46:44.476Z,42.73
2022-10-22T17:49:16.345Z,42.43
2022-10-22T17:51:46.376Z,42.52
2022-10-22T17:54:15.532Z,42.60
2022-10-22T17:56:44.714Z,42.61
2022-10-22T17:59:14.562Z,42.87
2022-10-22T18:01:46.117Z,42.57
2022-10-22T18:04:16.462Z,42.40
2022-10-22T18:06:47.458Z,42.63
2022-10-22T18:09:18.292Z,42.80
2022-10-22T18:11:47.745Z,42.69
2022-10-22T18:14:15.654Z,42.43
2022-10-22T18:16:45.189Z,42.51
2022-10-22T18:19:13.189Z,42.52
2022-10-22T18:21:41.854Z,42.52
2022-10-22T18:24:11.934Z,42.71
2022-10-22T18:26:41.421Z,42.40
2022-10-22T18:29:10.298Z,42.66
2022-10-22T18:31:39.034Z,42.80
2022-10-22T18:34:07.036Z,42.84
2022-10-22T18:36:35.769Z,42.73
2022-10-22T18:39:03.779Z,42.41
2022-10-22T18:41:33.942Z,42.40
2022-10-22T18:44:02.561Z,42.49
2022-10-22T18:46:31.608Z,42.52
2022-10-22T18:48:59.660Z,42.79
2022-10-22T18:51:32.797Z,42.57
2022-10-22T18:54:05.950Z,42.50
2022-10-22T18:56:51.489Z,42.57
2022-10-22T18:59:20.239Z,42.83
2022-10-22T19:01:49.197Z,42.67
2022-10-22T19:04:17.162Z,42.70
2022-10-22T19:06:46.150Z,42.63
2022-10-22T19:09:14.880Z,42.86
2022-10-22T19:11:45.819Z,42.61
2022-10-22T19:14:19.302Z,42.98
2022-10-22T19:16:47.908Z,42.98
2022-10-22T19:19:17.148Z,42.74
2022-10-22T19:21:45.858Z,42.90
2022-10-22T19:24:13.832Z,42.69
2022-10-22T19:26:42.856Z,42.95
2022-10-22T19:29:11.699Z,42.79
2022-10-22T19:31:42.400Z,42.62
2022-10-22T19:34:10.758Z,42.61
2022-10-22T19:36:39.544Z,42.75
2022-10-22T19:39:07.766Z,42.81
2022-10-22T19:41:36.574Z,42.56
2022-10-22T19:44:04.666Z,42.59
2022-10-22T19:46:33.819Z,42.48
2022-10-22T19:49:03.377Z,42.68
2022-10-22T19:51:34.162Z,42.66
2022-10-22T19:54:03.109Z,42.74
2022-10-22T19:56:31.842Z,42.58
2022-10-22T19:59:00.918Z,42.67
2022-10-22T20:01:28.971Z,42.43
2022-10-22T20:03:57.638Z,42.69
2022-10-22T20:06:26.924Z,42.55
2022-10-22T20:08:56.417Z,42.76
2022-10-22T20:11:25.471Z,42.93
2022-10-22T20:13:54.093Z,42.88
2022-10-22T20:16:23.799Z,42.81
2022-10-22T20:18:52.596Z,42.97
2022-10-22T20:21:20.656Z,42.90
2022-10-22T20:23:53.642Z,42.65
2022-10-22T20:26:23.439Z,43.06
2022-10-22T20:28:52.160Z,42.80
2022-10-22T20:31:20.856Z,42.98
2022-10-22T20:33:49.614Z,42.78
2022-10-22T20:36:18.870Z,42.76
2022-10-22T20:38:50.882Z,43.09
2022-10-22T20:41:21.327Z,42.86
2022-10-22T20:43:50.620Z,42.84
2022-10-22T20:46:19.515Z,42.87
2022-10-22T20:48:48.243Z,42.91
2022-10-22T20:51:16.860Z,43.30
2022-10-22T20:53:46.674Z,43.10
2022-10-22T20:56:14.702Z,43.00
2022-10-22T20:58:48.924Z,43.37
2022-10-22T21:01:21.557Z,43.27
2022-10-22T21:03:50.777Z,43.13
2022-10-22T21:06:20.974Z,43.26
2022-10-22T21:08:49.879Z,43.54
2022-10-22T21:11:17.879Z,43.33
2022-10-22T21:13:47.959Z,43.56
2022-10-22T21:16:16.039Z,43.67
2022-10-22T21:18:44.518Z,43.46
2022-10-22T21:21:13.058Z,43.38
2022-10-22T21:23:41.656Z,43.67
2022-10-22T21:26:09.608Z,43.49
2022-10-22T21:28:38.388Z,43.93
2022-10-22T21:31:09.597Z,43.92
2022-10-22T21:33:38.492Z,43.54
2022-10-22T21:36:07.273Z,43.95
2022-10-22T21:38:35.895Z,43.80
2022-10-22T21:41:05.802Z,43.65
2022-10-22T21:43:34.048Z,44.14
2022-10-22T21:46:08.280Z,44.12
2022-10-22T21:48:36.553Z,44.01
2022-10-22T21:51:08.326Z,44.02
2022-10-22T21:53:36.604Z,44.40
2022-10-22T21:56:04.831Z,44.48
2022-10-22T21:58:32.846Z,44.40
2022-10-22T22:01:00.855Z,44.62
2022-10-22T22:03:31.334Z,44.55
2022-10-22T22:05:59.886Z,44.42
2022-10-22T22:08:27.892Z,44.31
2022-10-22T22:11:01.800Z,44.36
2022-10-22T22:13:29.853Z,44.53
2022-10-22T22:16:01.965Z,44.49
2022-10-22T22:18:32.305Z,44.52
2022-10-22T22:21:00.746Z,44.75
2022-10-22T22:23:29.469Z,44.59
2022-10-22T22:26:00.506Z,44.79
2022-10-22T22:28:29.000Z,44.44
2022-10-22T22:30:57.590Z,44.83
2022-10-22T22:33:26.258Z,44.90
2022-10-22T22:35:59.643Z,44.90
2022-10-22T22:38:28.055Z,44.95
2022-10-22T22:40:56.517Z,44.77
2022-10-22T22:43:24.848Z,44.98
2022-10-22T22:46:01.193Z,44.78
2022-10-22T22:48:29.613Z,45.08
2022-10-22T22:51:00.105Z,45.29
2022-10-22T22:53:28.859Z,44.86
2022-10-22T22:56:10.595Z,44.91
2022-10-22T22:58:40.437Z,45.21
2022-10-22T23:01:13.136Z,45.07
2022-10-22T23:03:41.235Z,44.87
2022-10-22T23:06:10.578Z,44.93
2022-10-22T23:08:38.630Z,45.02
2022-10-22T23:11:07.504Z,45.19
2022-10-22T23:13:35.573Z,45.00
2022-10-22T23:16:06.656Z,45.35
2022-10-22T23:18:35.230Z,45.06
2022-10-22T23:21:06.275Z,45.07
2022-10-22T23:23:35.754Z,45.16
2022-10-22T23:26:03.711Z,45.62
2022-10-22T23:28:31.796Z,45.30
2022-10-22T23:30:59.787Z,45.29
2022-10-22T23:33:28.032Z,45.60
2022-10-22T23:35:55.944Z,45.51
2022-10-22T23:38:23.875Z,45.31
2022-10-22T23:40:57.047Z,45.48
2022-10-22T23:43:25.128Z,45.14
2022-10-22T23:45:53.125Z,45.47
2022-10-22T23:48:21.119Z,45.52
2022-10-22T23:50:49.184Z,45.52
2022-10-22T23:53:17.371Z,45.53
2022-10-22T23:55:45.401Z,45.39
2022-10-22T23:58:14.732Z,45.40
